createdAt,value
2022-12-16T00:01:36.676Z,45.40
2022-12-16T00:04:40.453Z,41.77
2022-12-16T00:07:44.267Z,45.60
2022-12-16T00:10:57.065Z,40.87
2022-12-16T00:14:02.630Z,55.67
2022-12-16T00:17:06.498Z,48.73
2022-12-16T00:20:11.355Z,43.97
2022-12-16T00:23:15.859Z,46.27
2022-12-16T00:26:19.553Z,47.83
2022-12-16T00:29:25.370Z,45.10
2022-12-16T00:32:29.140Z,38.17
2022-12-16T00:35:33.376Z,40.77
2022-12-16T00:38:37.189Z,40.73
2022-12-16T00:41:40.999Z,41.10
2022-12-16T00:44:46.155Z,47.00
2022-12-16T00:47:51.806Z,40.37
2022-12-16T00:50:56.581Z,42.07
2022-12-16T00:54:00.330Z,42.57
2022-12-16T00:57:04.758Z,44.13
2022-12-16T01:00:13.216Z,42.83
2022-12-16T01:03:21.542Z,41.47
2022-12-16T01:06:25.905Z,40.60
2022-12-16T01:09:30.145Z,43.00
2022-12-16T01:12:34.206Z,45.80
2022-12-16T01:15:40.856Z,51.57
2022-12-16T01:18:44.658Z,50.17
2022-12-16T01:21:48.466Z,47.33
2022-12-16T01:24:52.354Z,44.30
2022-12-16T01:27:56.178Z,47.77
2022-12-16T01:31:02.990Z,40.80
2022-12-16T01:34:06.569Z,46.13
2022-12-16T01:37:12.938Z,38.00
2022-12-16T01:40:20.350Z,35.13
2022-12-16T01:43:29.993Z,34.57
2022-12-16T01:46:38.838Z,39.07
2022-12-16T01:49:45.858Z,34.80
2022-12-16T01:52:54.636Z,34.47
2022-12-16T01:56:00.336Z,32.63
2022-12-16T01:59:04.575Z,36.77
2022-12-16T02:02:10.876Z,39.77
2022-12-16T02:05:22.985Z,38.63
2022-12-16T02:08:26.676Z,45.50
2022-12-16T02:12:17.736Z,42.37
2022-12-16T02:15:36.948Z,44.57
2022-12-16T02:18:52.710Z,43.63
2022-12-16T02:22:09.256Z,44.27
2022-12-16T02:25:46.245Z,45.07
2022-12-16T02:29:11.780Z,44.60
2022-12-16T02:32:28.174Z,39.37
2022-12-16T02:35:41.060Z,40.90
2022-12-16T02:38:56.084Z,42.63
2022-12-16T02:42:08.449Z,43.33
2022-12-16T02:45:16.629Z,36.53
2022-12-16T02:48:21.742Z,41.43
2022-12-16T02:51:27.756Z,42.47
2022-12-16T02:54:31.717Z,43.90
2022-12-16T02:57:59.598Z,39.73
2022-12-16T03:01:11.205Z,42.40
2022-12-16T03:04:20.971Z,40.17
2022-12-16T03:07:28.369Z,37.70
2022-12-16T03:10:36.789Z,35.90
2022-12-16T03:13:44.581Z,38.73
2022-12-16T03:16:49.542Z,34.33
2022-12-16T03:20:03.027Z,39.07
2022-12-16T03:23:11.695Z,40.80
2022-12-16T03:26:20.477Z,41.73
2022-12-16T03:29:29.316Z,36.93
2022-12-16T03:32:39.355Z,36.07
2022-12-16T03:35:50.489Z,36.00
2022-12-16T03:38:57.491Z,39.33
2022-12-16T03:42:04.265Z,35.53
2022-12-16T03:45:12.729Z,37.67
2022-12-16T03:48:19.087Z,31.03
2022-12-16T03:51:24.610Z,33.07
2022-12-16T03:54:28.609Z,29.63
2022-12-16T03:57:32.576Z,32.57
2022-12-16T04:00:36.349Z,32.50
2022-12-16T04:03:40.315Z,30.30
2022-12-16T04:06:45.746Z,29.23
2022-12-16T04:09:50.341Z,26.27
2022-12-16T04:13:11.329Z,29.33
2022-12-16T04:16:34.748Z,30.13
2022-12-16T04:19:57.049Z,28.97
2022-12-16T04:23:19.931Z,32.33
2022-12-16T04:26:24.410Z,36.47
2022-12-16T04:29:28.316Z,30.57
2022-12-16T04:32:53.674Z,31.53
2022-12-16T04:36:26.566Z,30.67
2022-12-16T04:39:49.028Z,30.43
2022-12-16T04:43:10.007Z,33.40
2022-12-16T04:46:27.433Z,33.07
2022-12-16T04:49:48.509Z,31.50
2022-12-16T04:53:09.955Z,29.83
2022-12-16T04:56:32.317Z,32.50
2022-12-16T04:59:53.285Z,29.47
2022-12-16T05:03:15.294Z,25.50
2022-12-16T05:06:36.830Z,29.67
2022-12-16T05:09:58.051Z,28.83
2022-12-16T05:13:20.828Z,28.30
2022-12-16T05:16:42.038Z,29.90
2022-12-16T05:20:03.397Z,33.20
2022-12-16T05:23:24.665Z,30.67
2022-12-16T05:26:45.506Z,33.90
2022-12-16T05:30:07.815Z,29.13
2022-12-16T05:33:29.050Z,33.13
2022-12-16T05:36:49.949Z,32.53
2022-12-16T05:40:10.989Z,33.33
2022-12-16T05:43:32.277Z,35.23
2022-12-16T05:47:10.097Z,34.33
2022-12-16T05:50:31.724Z,34.43
2022-12-16T05:54:01.492Z,36.07
2022-12-16T05:57:22.711Z,35.20
2022-12-16T06:00:44.018Z,35.63
2022-12-16T06:04:06.824Z,37.23
2022-12-16T06:07:36.358Z,36.03
2022-12-16T06:10:57.389Z,41.47
2022-12-16T06:14:18.404Z,44.53
2022-12-16T06:17:41.067Z,45.60
2022-12-16T06:21:04.027Z,44.03
2022-12-16T06:24:25.607Z,45.80
2022-12-16T06:27:47.017Z,54.60
2022-12-16T06:31:08.197Z,55.43
2022-12-16T06:34:29.368Z,57.53
2022-12-16T06:37:51.737Z,55.83
2022-12-16T06:41:12.804Z,55.27
2022-12-16T06:44:33.918Z,53.93
2022-12-16T06:47:54.989Z,45.43
2022-12-16T06:51:16.048Z,44.30
2022-12-16T06:54:38.659Z,40.90
2022-12-16T06:57:59.808Z,42.27
2022-12-16T07:01:21.038Z,45.50
2022-12-16T07:04:42.374Z,40.43
2022-12-16T07:08:06.915Z,43.17
2022-12-16T07:11:29.146Z,43.33
2022-12-16T07:14:50.388Z,41.37
2022-12-16T07:18:11.546Z,42.17
2022-12-16T07:21:32.583Z,56.90
2022-12-16T07:24:53.540Z,54.10
2022-12-16T07:28:16.206Z,50.30
2022-12-16T07:31:37.368Z,54.90
2022-12-16T07:34:58.629Z,50.80
2022-12-16T07:38:19.559Z,43.93
2022-12-16T07:41:41.043Z,37.00
2022-12-16T07:45:03.786Z,36.80
2022-12-16T07:48:25.230Z,36.67
2022-12-16T07:51:46.219Z,41.23
2022-12-16T07:55:07.129Z,42.97
2022-12-16T07:58:29.856Z,34.63
2022-12-16T08:01:52.715Z,40.97
2022-12-16T08:05:16.185Z,38.07
2022-12-16T08:08:37.324Z,39.73
2022-12-16T08:11:58.536Z,51.10
2022-12-16T08:15:19.579Z,46.50
2022-12-16T08:18:41.889Z,49.13
2022-12-16T08:22:03.196Z,43.40
2022-12-16T08:25:24.285Z,50.47
2022-12-16T08:28:45.656Z,52.60
2022-12-16T08:32:06.920Z,40.63
2022-12-16T08:35:29.676Z,39.50
2022-12-16T08:38:50.780Z,30.83
2022-12-16T08:42:12.062Z,36.30
2022-12-16T08:45:33.057Z,32.03
2022-12-16T08:48:54.277Z,34.80
2022-12-16T08:52:18.652Z,39.93
2022-12-16T08:55:39.755Z,40.83
2022-12-16T08:59:00.869Z,43.17
2022-12-16T09:02:22.204Z,44.63
2022-12-16T09:05:43.570Z,51.53
2022-12-16T09:09:06.211Z,76.63
2022-12-16T09:12:26.870Z,47.63
2022-12-16T09:15:48.206Z,44.63
2022-12-16T09:19:17.675Z,43.30
2022-12-16T09:22:38.367Z,40.63
2022-12-16T09:26:01.091Z,43.10
2022-12-16T09:29:22.338Z,47.43
2022-12-16T09:32:43.372Z,50.17
2022-12-16T09:36:04.707Z,56.80
2022-12-16T09:39:26.177Z,71.67
2022-12-16T09:43:00.476Z,58.80
2022-12-16T09:46:27.817Z,63.30
2022-12-16T09:50:02.697Z,50.07
2022-12-16T09:53:29.489Z,64.53
2022-12-16T09:56:55.225Z,65.23
2022-12-16T10:00:21.267Z,61.37
2022-12-16T10:03:46.361Z,67.60
2022-12-16T10:07:15.931Z,60.47
2022-12-16T10:10:45.999Z,71.87
2022-12-16T10:14:19.632Z,65.70
2022-12-16T10:17:44.705Z,60.47
2022-12-16T10:21:10.270Z,65.40
2022-12-16T10:24:44.475Z,57.17
2022-12-16T10:28:07.037Z,51.03
2022-12-16T10:31:34.243Z,50.47
2022-12-16T10:34:59.050Z,54.73
2022-12-16T10:38:21.429Z,56.97
2022-12-16T10:41:45.638Z,56.40
2022-12-16T10:45:11.290Z,56.33
2022-12-16T10:48:33.704Z,52.40
2022-12-16T10:51:55.287Z,56.53
2022-12-16T10:55:25.676Z,53.67
2022-12-16T10:58:55.871Z,50.67
2022-12-16T11:02:18.887Z,56.13
2022-12-16T11:05:48.166Z,51.63
2022-12-16T11:09:10.836Z,52.50
2022-12-16T11:12:43.600Z,57.90
2022-12-16T11:16:04.911Z,54.17
2022-12-16T11:19:44.210Z,57.43
2022-12-16T11:23:04.919Z,51.80
2022-12-16T11:26:36.353Z,56.00
2022-12-16T11:30:12.246Z,53.40
2022-12-16T11:33:39.850Z,56.00
2022-12-16T11:37:02.690Z,54.50
2022-12-16T11:40:25.739Z,53.43
2022-12-16T11:43:51.775Z,47.30
2022-12-16T11:47:13.387Z,51.60
2022-12-16T11:50:44.536Z,58.37
2022-12-16T11:54:11.128Z,58.00
2022-12-16T11:57:39.697Z,61.30
2022-12-16T12:01:13.419Z,53.50
2022-12-16T12:04:35.117Z,59.07
2022-12-16T12:08:07.423Z,59.70
2022-12-16T12:11:37.999Z,63.70
2022-12-16T12:15:07.250Z,60.47
2022-12-16T12:18:40.444Z,52.40
2022-12-16T12:22:09.292Z,61.30
2022-12-16T12:25:40.638Z,66.93
2022-12-16T12:29:10.835Z,62.73
2022-12-16T12:32:44.289Z,59.90
2022-12-16T12:36:16.316Z,64.27
2022-12-16T12:39:43.160Z,62.33
2022-12-16T12:43:08.416Z,68.17
2022-12-16T12:46:35.963Z,63.93
2022-12-16T12:50:05.277Z,67.73
2022-12-16T12:53:42.449Z,63.80
2022-12-16T12:57:08.311Z,60.87
2022-12-16T13:00:36.245Z,67.27
2022-12-16T13:04:01.765Z,62.57
2022-12-16T13:07:23.541Z,63.40
2022-12-16T13:10:55.356Z,56.50
2022-12-16T13:14:16.297Z,52.73
2022-12-16T13:17:38.301Z,55.63
2022-12-16T13:20:59.495Z,51.63
2022-12-16T13:24:36.245Z,48.90
2022-12-16T13:28:15.475Z,47.27
2022-12-16T13:31:37.009Z,51.97
2022-12-16T13:34:58.159Z,44.67
2022-12-16T13:38:21.559Z,45.00
2022-12-16T13:42:08.929Z,50.20
2022-12-16T13:45:49.238Z,46.47
2022-12-16T13:49:10.448Z,46.33
2022-12-16T13:52:35.668Z,46.40
2022-12-16T13:56:01.258Z,44.57
2022-12-16T13:59:30.439Z,42.17
2022-12-16T14:03:07.926Z,40.27
2022-12-16T14:06:34.216Z,43.60
2022-12-16T14:09:57.129Z,43.37
2022-12-16T14:13:39.619Z,44.13
2022-12-16T14:17:09.974Z,44.80
2022-12-16T14:20:40.058Z,50.53
2022-12-16T14:24:05.241Z,46.33
2022-12-16T14:27:33.086Z,53.90
2022-12-16T14:30:55.079Z,55.97
2022-12-16T14:34:16.190Z,54.63
2022-12-16T14:37:41.063Z,57.03
2022-12-16T14:41:08.949Z,55.20
2022-12-16T14:44:37.375Z,59.20
2022-12-16T14:47:59.056Z,59.00
2022-12-16T14:51:35.266Z,63.53
2022-12-16T14:55:01.049Z,58.53
2022-12-16T14:58:24.941Z,59.40
2022-12-16T15:01:46.135Z,60.03
2022-12-16T15:05:07.755Z,58.43
2022-12-16T15:08:31.210Z,55.10
2022-12-16T15:11:55.698Z,56.57
2022-12-16T15:15:17.209Z,54.13
2022-12-16T15:18:41.327Z,60.47
2022-12-16T15:22:02.821Z,55.50
2022-12-16T15:25:24.876Z,64.57
2022-12-16T15:28:58.481Z,64.47
2022-12-16T15:32:19.648Z,65.40
2022-12-16T15:35:50.901Z,64.10
2022-12-16T15:39:11.770Z,61.97
2022-12-16T15:42:39.272Z,58.53
2022-12-16T15:46:07.678Z,60.43
2022-12-16T15:49:37.831Z,59.50
2022-12-16T15:53:01.169Z,58.17
2022-12-16T15:56:22.117Z,60.47
2022-12-16T15:59:45.649Z,64.97
2022-12-16T16:03:08.330Z,71.27
2022-12-16T16:06:37.096Z,54.80
2022-12-16T16:09:58.636Z,52.23
2022-12-16T16:13:19.691Z,60.57
2022-12-16T16:16:40.778Z,51.10
2022-12-16T16:20:03.934Z,61.33
2022-12-16T16:23:25.231Z,68.97
2022-12-16T16:26:46.815Z,111.57
2022-12-16T16:30:07.669Z,109.97
2022-12-16T16:33:43.249Z,156.53
2022-12-16T16:37:08.336Z,81.97
2022-12-16T16:40:36.902Z,77.80
2022-12-16T16:43:57.918Z,83.30
2022-12-16T16:47:20.004Z,71.37
2022-12-16T16:50:41.159Z,115.60
2022-12-16T16:54:04.639Z,116.47
2022-12-16T16:57:29.078Z,161.03
2022-12-16T17:00:50.431Z,109.37
2022-12-16T17:04:11.912Z,119.27
2022-12-16T17:07:33.199Z,111.63
2022-12-16T17:10:56.204Z,102.03
2022-12-16T17:14:17.236Z,297.43
2022-12-16T17:17:38.310Z,111.20
2022-12-16T17:20:59.247Z,164.60
2022-12-16T17:24:20.286Z,137.17
2022-12-16T17:27:44.556Z,127.77
2022-12-16T17:31:05.628Z,300.47
2022-12-16T17:34:26.765Z,116.00
2022-12-16T17:37:47.837Z,231.83
2022-12-16T17:41:11.217Z,133.50
2022-12-16T17:44:34.448Z,96.87
2022-12-16T17:47:51.939Z,109.70
2022-12-16T17:51:13.095Z,122.07
2022-12-16T17:54:34.355Z,155.63
2022-12-16T17:57:55.397Z,206.30
2022-12-16T18:01:20.770Z,125.03
2022-12-16T18:04:41.688Z,117.43
2022-12-16T18:08:02.667Z,98.47
2022-12-16T18:11:24.249Z,135.80
2022-12-16T18:14:45.316Z,106.37
2022-12-16T18:18:08.577Z,116.67
2022-12-16T18:21:30.490Z,119.77
2022-12-16T18:24:53.685Z,100.37
2022-12-16T18:28:14.535Z,102.37
2022-12-16T18:31:35.696Z,98.80
2022-12-16T18:34:57.955Z,99.70
2022-12-16T18:38:18.671Z,100.13
2022-12-16T18:41:41.301Z,88.40
2022-12-16T18:45:02.435Z,85.13
2022-12-16T18:48:24.095Z,87.30
2022-12-16T18:51:46.369Z,90.30
2022-12-16T18:55:07.670Z,106.50
2022-12-16T18:58:50.231Z,90.30
2022-12-16T19:02:10.463Z,99.00
2022-12-16T19:05:32.100Z,101.77
2022-12-16T19:08:54.880Z,86.83
2022-12-16T19:12:17.044Z,88.90
2022-12-16T19:15:41.412Z,86.53
2022-12-16T19:19:02.964Z,98.30
2022-12-16T19:22:24.293Z,90.83
2022-12-16T19:25:47.179Z,95.13
2022-12-16T19:29:08.153Z,93.57
2022-12-16T19:32:30.375Z,90.73
2022-12-16T19:35:53.735Z,84.43
2022-12-16T19:39:15.022Z,93.30
2022-12-16T19:42:48.634Z,89.57
2022-12-16T19:46:13.188Z,87.80
2022-12-16T19:49:36.298Z,89.13
2022-12-16T19:53:00.619Z,92.73
2022-12-16T19:56:21.774Z,99.30
2022-12-16T19:59:44.694Z,94.00
2022-12-16T20:03:05.902Z,95.17
2022-12-16T20:06:28.177Z,108.33
2022-12-16T20:09:49.516Z,105.10
2022-12-16T20:13:07.019Z,104.10
2022-12-16T20:16:30.475Z,93.70
2022-12-16T20:19:51.579Z,87.50
2022-12-16T20:23:14.685Z,99.13
2022-12-16T20:26:36.112Z,95.10
2022-12-16T20:29:57.226Z,90.30
2022-12-16T20:33:19.377Z,163.63
2022-12-16T20:36:40.433Z,94.90
2022-12-16T20:40:01.701Z,96.97
2022-12-16T20:43:23.154Z,123.27
2022-12-16T20:46:45.889Z,98.57
2022-12-16T20:50:08.519Z,94.53
2022-12-16T20:53:30.092Z,101.27
2022-12-16T20:56:51.033Z,83.17
2022-12-16T21:00:14.194Z,87.07
2022-12-16T21:03:35.360Z,85.37
2022-12-16T21:07:06.614Z,81.93
2022-12-16T21:10:28.360Z,89.90
2022-12-16T21:13:49.828Z,93.90
2022-12-16T21:17:16.505Z,114.27
2022-12-16T21:20:37.256Z,104.77
2022-12-16T21:23:59.921Z,97.23
2022-12-16T21:27:20.797Z,96.00
2022-12-16T21:30:41.846Z,195.33
2022-12-16T21:34:02.878Z,105.23
2022-12-16T21:37:23.889Z,88.70
2022-12-16T21:40:46.209Z,112.07
2022-12-16T21:44:09.441Z,107.57
2022-12-16T21:47:30.696Z,89.90
2022-12-16T21:50:51.769Z,95.30
2022-12-16T21:54:12.845Z,155.97
2022-12-16T21:57:35.596Z,90.63
2022-12-16T22:01:00.613Z,104.63
2022-12-16T22:04:21.873Z,249.07
2022-12-16T22:07:43.015Z,85.53
2022-12-16T22:11:03.305Z,103.47
2022-12-16T22:14:26.125Z,90.57
2022-12-16T22:17:47.249Z,92.27
2022-12-16T22:21:15.877Z,93.03
2022-12-16T22:24:36.889Z,99.70
2022-12-16T22:27:57.894Z,89.87
2022-12-16T22:31:20.602Z,97.77
2022-12-16T22:34:41.708Z,97.17
2022-12-16T22:38:02.901Z,91.27
2022-12-16T22:41:24.156Z,89.70
2022-12-16T22:44:45.505Z,89.73
2022-12-16T22:48:07.557Z,102.73
2022-12-16T22:51:32.399Z,90.37
2022-12-16T22:54:53.412Z,85.37
2022-12-16T22:58:14.379Z,91.87
2022-12-16T23:01:43.553Z,104.07
2022-12-16T23:05:06.562Z,87.67
2022-12-16T23:08:27.850Z,107.23
2022-12-16T23:11:53.321Z,95.47
2022-12-16T23:15:18.028Z,100.63
2022-12-16T23:18:39.160Z,97.57
2022-12-16T23:22:01.971Z,95.37
2022-12-16T23:25:23.482Z,99.17
2022-12-16T23:28:55.142Z,92.57
2022-12-16T23:32:18.005Z,98.67
2022-12-16T23:35:39.011Z,91.93
2022-12-16T23:39:02.098Z,90.67
2022-12-16T23:42:23.580Z,84.47
2022-12-16T23:45:44.729Z,94.40
2022-12-16T23:49:06.988Z,100.93
2022-12-16T23:52:28.132Z,81.70
2022-12-16T23:55:50.334Z,101.23
2022-12-16T23:59:11.700Z,108.53
